sensor_id;sensor_type;location;lat;lon;timestamp;pressure;altitude;pressure_sealevel;temperature;humidity
7802;BME280;3945;48.952;9.506;2023-04-22T00:00:00;97302.91;;;12.28;81.32
7802;BME280;3945;48.952;9.506;2023-04-22T00:02:26;97306.91;;;12.30;81.31
7802;BME280;3945;48.952;9.506;2023-04-22T00:04:53;97295.72;;;12.23;80.89
7802;BME280;3945;48.952;9.506;2023-04-22T00:07:21;97294.34;;;12.26;80.04
7802;BME280;3945;48.952;9.506;2023-04-22T00:09:49;97291.97;;;12.24;80.50
7802;BME280;3945;48.952;9.506;2023-04-22T00:12:15;97288.78;;;12.22;80.63
7802;BME280;3945;48.952;9.506;2023-04-22T00:14:41;97291.19;;;12.24;79.57
7802;BME280;3945;48.952;9.506;2023-04-22T00:17:08;97290.38;;;12.23;80.51
7802;BME280;3945;48.952;9.506;2023-04-22T00:19:35;97289.28;;;12.19;80.89
7802;BME280;3945;48.952;9.506;2023-04-22T00:22:01;97285.81;;;12.19;81.11
7802;BME280;3945;48.952;9.506;2023-04-22T00:24:28;97287.44;;;12.20;80.64
7802;BME280;3945;48.952;9.506;2023-04-22T00:26:56;97279.97;;;12.22;81.15
7802;BME280;3945;48.952;9.506;2023-04-22T00:29:23;97285.03;;;12.23;81.15
7802;BME280;3945;48.952;9.506;2023-04-22T00:31:50;97280.50;;;12.24;81.75
7802;BME280;3945;48.952;9.506;2023-04-22T00:34:16;97284.25;;;12.23;80.90
7802;BME280;3945;48.952;9.506;2023-04-22T00:36:43;97275.16;;;12.19;80.49
7802;BME280;3945;48.952;9.506;2023-04-22T00:39:10;97276.47;;;12.11;80.08
7802;BME280;3945;48.952;9.506;2023-04-22T00:41:37;97283.16;;;12.08;80.15
7802;BME280;3945;48.952;9.506;2023-04-22T00:44:05;97276.22;;;12.07;79.80
7802;BME280;3945;48.952;9.506;2023-04-22T00:46:33;97274.38;;;12.08;80.09
7802;BME280;3945;48.952;9.506;2023-04-22T00:49:00;97273.56;;;12.07;80.52
7802;BME280;3945;48.952;9.506;2023-04-22T00:51:27;97280.22;;;12.05;81.02
7802;BME280;3945;48.952;9.506;2023-04-22T00:53:53;97285.81;;;12.03;81.67
7802;BME280;3945;48.952;9.506;2023-04-22T00:56:20;97283.44;;;12.02;81.96
7802;BME280;3945;48.952;9.506;2023-04-22T00:58:47;97289.53;;;11.97;82.07
7802;BME280;3945;48.952;9.506;2023-04-22T01:01:15;97287.44;;;11.94;82.05
7802;BME280;3945;48.952;9.506;2023-04-22T01:03:41;97284.72;;;11.89;82.75
7802;BME280;3945;48.952;9.506;2023-04-22T01:06:08;97289.00;;;11.85;83.72
7802;BME280;3945;48.952;9.506;2023-04-22T01:08:34;97290.31;;;11.83;83.71
7802;BME280;3945;48.952;9.506;2023-04-22T01:11:01;97284.47;;;11.81;84.25
7802;BME280;3945;48.952;9.506;2023-04-22T01:13:27;97284.47;;;11.81;83.70
7802;BME280;3945;48.952;9.506;2023-04-22T01:15:54;97283.94;;;11.79;83.81
7802;BME280;3945;48.952;9.506;2023-04-22T01:18:22;97285.00;;;11.78;83.84
7802;BME280;3945;48.952;9.506;2023-04-22T01:20:48;97286.31;;;11.75;83.86
7802;BME280;3945;48.952;9.506;2023-04-22T01:23:17;97279.91;;;11.76;83.05
7802;BME280;3945;48.952;9.506;2023-04-22T01:25:44;97286.84;;;11.77;83.47
7802;BME280;3945;48.952;9.506;2023-04-22T01:28:10;97288.97;;;11.75;83.18
7802;BME280;3945;48.952;9.506;2023-04-22T01:30:37;97286.56;;;11.73;83.30
7802;BME280;3945;48.952;9.506;2023-04-22T01:33:03;97290.53;;;11.71;83.81
7802;BME280;3945;48.952;9.506;2023-04-22T01:35:30;97292.16;;;11.67;84.79
7802;BME280;3945;48.952;9.506;2023-04-22T01:38:00;97286.53;;;11.63;84.60
7802;BME280;3945;48.952;9.506;2023-04-22T01:40:28;97295.84;;;11.61;85.44
7802;BME280;3945;48.952;9.506;2023-04-22T01:42:55;97290.50;;;11.56;85.14
7802;BME280;3945;48.952;9.506;2023-04-22T01:45:22;97294.47;;;11.53;85.03
7802;BME280;3945;48.952;9.506;2023-04-22T01:47:49;97295.28;;;11.54;85.29
7802;BME280;3945;48.952;9.506;2023-04-22T01:50:15;97300.09;;;11.52;85.50
7802;BME280;3945;48.952;9.506;2023-04-22T01:52:42;97295.28;;;11.49;85.52
7802;BME280;3945;48.952;9.506;2023-04-22T01:55:08;97298.19;;;11.47;85.09
7802;BME280;3945;48.952;9.506;2023-04-22T01:57:36;97303.78;;;11.46;85.08
7802;BME280;3945;48.952;9.506;2023-04-22T02:00:03;97294.72;;;11.42;85.49
7802;BME280;3945;48.952;9.506;2023-04-22T02:02:30;97297.38;;;11.37;85.46
7802;BME280;3945;48.952;9.506;2023-04-22T02:04:56;97299.50;;;11.34;86.03
7802;BME280;3945;48.952;9.506;2023-04-22T02:07:22;97294.66;;;11.31;85.84
7802;BME280;3945;48.952;9.506;2023-04-22T02:09:49;97293.63;;;11.32;86.13
7802;BME280;3945;48.952;9.506;2023-04-22T02:12:15;97299.47;;;11.29;86.64
7802;BME280;3945;48.952;9.506;2023-04-22T02:14:43;97300.53;;;11.28;86.52
7802;BME280;3945;48.952;9.506;2023-04-22T02:17:09;97294.66;;;11.26;86.32
7802;BME280;3945;48.952;9.506;2023-04-22T02:19:35;97297.59;;;11.25;86.37
7802;BME280;3945;48.952;9.506;2023-04-22T02:22:02;97298.63;;;11.24;86.60
7802;BME280;3945;48.952;9.506;2023-04-22T02:24:28;97299.72;;;11.23;86.51
7802;BME280;3945;48.952;9.506;2023-04-22T02:26:54;97306.63;;;11.24;86.40
7802;BME280;3945;48.952;9.506;2023-04-22T02:29:21;97302.66;;;11.21;86.54
7802;BME280;3945;48.952;9.506;2023-04-22T02:31:49;97303.69;;;11.20;87.25
7802;BME280;3945;48.952;9.506;2023-04-22T02:34:15;97314.06;;;11.17;86.92
7802;BME280;3945;48.952;9.506;2023-04-22T02:36:42;97310.63;;;11.16;86.70
7802;BME280;3945;48.952;9.506;2023-04-22T02:39:08;97307.66;;;11.13;87.17
7802;BME280;3945;48.952;9.506;2023-04-22T02:41:35;97310.56;;;11.11;87.17
7802;BME280;3945;48.952;9.506;2023-04-22T02:44:01;97315.91;;;11.11;87.69
7802;BME280;3945;48.952;9.506;2023-04-22T02:46:28;97313.78;;;11.08;88.17
7802;BME280;3945;48.952;9.506;2023-04-22T02:48:55;97310.81;;;11.10;87.86
7802;BME280;3945;48.952;9.506;2023-04-22T02:51:22;97309.25;;;11.09;87.74
7802;BME280;3945;48.952;9.506;2023-04-22T02:53:48;97307.38;;;11.09;88.04
7802;BME280;3945;48.952;9.506;2023-04-22T02:56:15;97306.03;;;11.07;87.87
7802;BME280;3945;48.952;9.506;2023-04-22T02:58:41;97312.72;;;11.09;87.54
7802;BME280;3945;48.952;9.506;2023-04-22T03:01:07;97305.22;;;11.06;87.74
7802;BME280;3945;48.952;9.506;2023-04-22T03:03:34;97312.66;;;11.04;88.11
7802;BME280;3945;48.952;9.506;2023-04-22T03:06:01;97314.53;;;11.04;87.45
7802;BME280;3945;48.952;9.506;2023-04-22T03:08:28;97320.91;;;11.03;87.82
7802;BME280;3945;48.952;9.506;2023-04-22T03:10:54;97320.91;;;11.03;87.84
7802;BME280;3945;48.952;9.506;2023-04-22T03:13:20;97322.50;;;11.04;87.73
7802;BME280;3945;48.952;9.506;2023-04-22T03:15:46;97319.84;;;11.04;88.12
7802;BME280;3945;48.952;9.506;2023-04-22T03:18:13;97323.03;;;11.01;88.22
7802;BME280;3945;48.952;9.506;2023-04-22T03:20:39;97318.78;;;11.00;88.08
7802;BME280;3945;48.952;9.506;2023-04-22T03:23:07;97311.81;;;10.93;87.79
7802;BME280;3945;48.952;9.506;2023-04-22T03:25:33;97312.88;;;10.92;88.37
7802;BME280;3945;48.952;9.506;2023-04-22T03:28:00;97306.75;;;10.92;88.85
7802;BME280;3945;48.952;9.506;2023-04-22T03:30:26;97309.41;;;10.92;88.26
7802;BME280;3945;48.952;9.506;2023-04-22T03:32:52;97311.81;;;10.93;87.80
7802;BME280;3945;48.952;9.506;2023-04-22T03:35:19;97311.53;;;10.90;87.68
7802;BME280;3945;48.952;9.506;2023-04-22T03:37:45;97308.06;;;10.89;87.48
7802;BME280;3945;48.952;9.506;2023-04-22T03:40:13;97316.03;;;10.89;86.76
7802;BME280;3945;48.952;9.506;2023-04-22T03:42:39;97312.06;;;10.92;86.55
7802;BME280;3945;48.952;9.506;2023-04-22T03:45:06;97312.31;;;10.90;86.66
7802;BME280;3945;48.952;9.506;2023-04-22T03:47:32;97310.72;;;10.89;86.45
7802;BME280;3945;48.952;9.506;2023-04-22T03:49:58;97318.47;;;10.91;86.31
7802;BME280;3945;48.952;9.506;2023-04-22T03:52:25;97319.75;;;10.88;86.30
7802;BME280;3945;48.952;9.506;2023-04-22T03:54:51;97312.81;;;10.82;86.01
7802;BME280;3945;48.952;9.506;2023-04-22T03:57:19;97309.63;;;10.80;86.06
7802;BME280;3945;48.952;9.506;2023-04-22T03:59:45;97311.97;;;10.77;86.15
7802;BME280;3945;48.952;9.506;2023-04-22T04:02:11;97312.47;;;10.74;86.14
7802;BME280;3945;48.952;9.506;2023-04-22T04:04:38;97306.63;;;10.72;85.57
7802;BME280;3945;48.952;9.506;2023-04-22T04:07:05;97305.59;;;10.73;84.85
7802;BME280;3945;48.952;9.506;2023-04-22T04:09:32;97299.47;;;10.72;85.15
7802;BME280;3945;48.952;9.506;2023-04-22T04:11:58;97305.31;;;10.74;84.61
7802;BME280;3945;48.952;9.506;2023-04-22T04:14:26;97306.38;;;10.73;85.09
7802;BME280;3945;48.952;9.506;2023-04-22T04:16:52;97311.16;;;10.71;85.06
7802;BME280;3945;48.952;9.506;2023-04-22T04:19:19;97302.88;;;10.68;84.97
7802;BME280;3945;48.952;9.506;2023-04-22T04:21:45;97304.19;;;10.65;84.86
7802;BME280;3945;48.952;9.506;2023-04-22T04:24:11;97293.00;;;10.63;84.21
7802;BME280;3945;48.952;9.506;2023-04-22T04:26:38;97297.22;;;10.59;83.18
7802;BME280;3945;48.952;9.506;2023-04-22T04:29:04;97289.53;;;10.63;82.33
7802;BME280;3945;48.952;9.506;2023-04-22T04:31:32;97289.28;;;10.64;82.39
7802;BME280;3945;48.952;9.506;2023-04-22T04:34:01;97281.84;;;10.66;82.73
7802;BME280;3945;48.952;9.506;2023-04-22T04:36:27;97278.13;;;10.67;82.95
7802;BME280;3945;48.952;9.506;2023-04-22T04:38:54;97275.19;;;10.64;82.25
7802;BME280;3945;48.952;9.506;2023-04-22T04:41:20;97275.47;;;10.67;80.34
7802;BME280;3945;48.952;9.506;2023-04-22T04:43:47;97287.22;;;10.71;81.00
7802;BME280;3945;48.952;9.506;2023-04-22T04:46:14;97281.63;;;10.73;81.55
7802;BME280;3945;48.952;9.506;2023-04-22T04:48:42;97276.84;;;10.75;82.28
7802;BME280;3945;48.952;9.506;2023-04-22T04:51:10;97277.63;;;10.75;82.49
7802;BME280;3945;48.952;9.506;2023-04-22T04:53:37;97279.81;;;10.78;82.45
7802;BME280;3945;48.952;9.506;2023-04-22T04:56:03;97284.31;;;10.78;82.91
7802;BME280;3945;48.952;9.506;2023-04-22T04:58:29;97285.94;;;10.79;83.19
7802;BME280;3945;48.952;9.506;2023-04-22T05:00:56;97291.00;;;10.80;83.20
7802;BME280;3945;48.952;9.506;2023-04-22T05:03:22;97298.69;;;10.82;83.55
7802;BME280;3945;48.952;9.506;2023-04-22T05:05:50;97296.59;;;10.84;83.31
7802;BME280;3945;48.952;9.506;2023-04-22T05:08:16;97296.59;;;10.84;83.58
7802;BME280;3945;48.952;9.506;2023-04-22T05:10:43;97290.47;;;10.83;83.82
7802;BME280;3945;48.952;9.506;2023-04-22T05:13:09;97304.88;;;10.87;83.72
7802;BME280;3945;48.952;9.506;2023-04-22T05:15:35;97306.44;;;10.88;84.12
7802;BME280;3945;48.952;9.506;2023-04-22T05:18:02;97312.88;;;10.87;84.74
7802;BME280;3945;48.952;9.506;2023-04-22T05:20:28;97306.72;;;10.87;83.71
7802;BME280;3945;48.952;9.506;2023-04-22T05:22:56;97301.91;;;10.84;83.87
7802;BME280;3945;48.952;9.506;2023-04-22T05:25:22;97303.53;;;10.85;84.21
7802;BME280;3945;48.952;9.506;2023-04-22T05:27:49;97301.38;;;10.82;84.10
7802;BME280;3945;48.952;9.506;2023-04-22T05:30:15;97305.38;;;10.84;84.10
7802;BME280;3945;48.952;9.506;2023-04-22T05:32:41;97303.53;;;10.85;84.37
7802;BME280;3945;48.952;9.506;2023-04-22T05:35:08;97296.59;;;10.84;85.15
7802;BME280;3945;48.952;9.506;2023-04-22T05:37:35;97302.47;;;10.86;85.34
7802;BME280;3945;48.952;9.506;2023-04-22T05:40:03;97309.91;;;10.89;85.34
7802;BME280;3945;48.952;9.506;2023-04-22T05:42:29;97300.38;;;10.93;85.34
7802;BME280;3945;48.952;9.506;2023-04-22T05:44:55;97304.13;;;10.97;85.58
7802;BME280;3945;48.952;9.506;2023-04-22T05:47:22;97311.34;;;11.02;86.20
7802;BME280;3945;48.952;9.506;2023-04-22T05:49:48;97310.31;;;11.08;85.91
7802;BME280;3945;48.952;9.506;2023-04-22T05:52:14;97303.13;;;11.08;86.14
7802;BME280;3945;48.952;9.506;2023-04-22T05:54:42;97307.66;;;11.13;86.41
7802;BME280;3945;48.952;9.506;2023-04-22T05:57:10;97304.75;;;11.19;85.96
7802;BME280;3945;48.952;9.506;2023-04-22T05:59:36;97310.38;;;11.23;86.19
7802;BME280;3945;48.952;9.506;2023-04-22T06:02:03;97309.34;;;11.29;86.25
7802;BME280;3945;48.952;9.506;2023-04-22T06:04:29;97310.44;;;11.38;87.11
7802;BME280;3945;48.952;9.506;2023-04-22T06:06:55;97309.09;;;11.46;87.48
7802;BME280;3945;48.952;9.506;2023-04-22T06:09:22;97296.09;;;11.54;87.49
7802;BME280;3945;48.952;9.506;2023-04-22T06:11:48;97302.22;;;11.60;86.88
7802;BME280;3945;48.952;9.506;2023-04-22T06:14:16;97310.25;;;11.65;87.14
7802;BME280;3945;48.952;9.506;2023-04-22T06:16:42;97311.88;;;11.71;86.74
7802;BME280;3945;48.952;9.506;2023-04-22T06:19:08;97314.84;;;11.80;86.20
7802;BME280;3945;48.952;9.506;2023-04-22T06:21:35;97315.94;;;11.94;85.47
7802;BME280;3945;48.952;9.506;2023-04-22T06:24:04;97317.84;;;12.08;85.39
7802;BME280;3945;48.952;9.506;2023-04-22T06:26:30;97310.63;;;12.19;85.85
7802;BME280;3945;48.952;9.506;2023-04-22T06:28:56;97309.84;;;12.34;85.47
7802;BME280;3945;48.952;9.506;2023-04-22T06:31:24;97320.50;;;12.49;85.86
7802;BME280;3945;48.952;9.506;2023-04-22T06:33:50;97327.19;;;12.67;85.88
7802;BME280;3945;48.952;9.506;2023-04-22T06:36:17;97322.09;;;12.80;85.62
7802;BME280;3945;48.952;9.506;2023-04-22T06:38:43;97330.59;;;12.98;84.80
7802;BME280;3945;48.952;9.506;2023-04-22T06:41:09;97328.97;;;13.22;82.36
7802;BME280;3945;48.952;9.506;2023-04-22T06:43:36;97334.50;;;13.41;80.47
7802;BME280;3945;48.952;9.506;2023-04-22T06:46:02;97329.31;;;13.64;79.67
7802;BME280;3945;48.952;9.506;2023-04-22T06:48:30;97338.25;;;13.94;79.36
7802;BME280;3945;48.952;9.506;2023-04-22T06:50:56;97331.16;;;14.18;79.36
7802;BME280;3945;48.952;9.506;2023-04-22T06:53:22;97336.13;;;14.40;78.50
7802;BME280;3945;48.952;9.506;2023-04-22T06:55:49;97328.25;;;14.49;78.53
7802;BME280;3945;48.952;9.506;2023-04-22T06:58:15;97334.09;;;14.56;77.70
7802;BME280;3945;48.952;9.506;2023-04-22T07:00:41;97334.56;;;14.63;76.28
7802;BME280;3945;48.952;9.506;2023-04-22T07:03:08;97334.78;;;14.71;75.75
7802;BME280;3945;48.952;9.506;2023-04-22T07:05:35;97333.88;;;14.81;75.37
7802;BME280;3945;48.952;9.506;2023-04-22T07:08:02;97340.19;;;14.95;75.08
7802;BME280;3945;48.952;9.506;2023-04-22T07:10:28;97329.06;;;15.07;73.64
7802;BME280;3945;48.952;9.506;2023-04-22T07:12:55;97329.19;;;15.20;73.95
7802;BME280;3945;48.952;9.506;2023-04-22T07:15:21;97334.16;;;15.32;72.62
7802;BME280;3945;48.952;9.506;2023-04-22T07:17:47;97332.75;;;15.40;71.91
7802;BME280;3945;48.952;9.506;2023-04-22T07:20:14;97331.88;;;15.44;71.10
7802;BME280;3945;48.952;9.506;2023-04-22T07:22:42;97341.97;;;15.52;71.84
7802;BME280;3945;48.952;9.506;2023-04-22T07:25:08;97336.53;;;15.63;72.00
7802;BME280;3945;48.952;9.506;2023-04-22T07:27:35;97332.69;;;15.69;71.52
7802;BME280;3945;48.952;9.506;2023-04-22T07:30:01;97325.88;;;15.76;70.84
7802;BME280;3945;48.952;9.506;2023-04-22T07:32:28;97315.00;;;15.86;70.40
7802;BME280;3945;48.952;9.506;2023-04-22T07:34:54;97321.31;;;15.95;70.14
7802;BME280;3945;48.952;9.506;2023-04-22T07:37:21;97320.88;;;16.07;69.55
7802;BME280;3945;48.952;9.506;2023-04-22T07:39:48;97318.56;;;16.19;68.61
7802;BME280;3945;48.952;9.506;2023-04-22T07:42:15;97318.00;;;16.36;68.69
7802;BME280;3945;48.952;9.506;2023-04-22T07:44:41;97312.03;;;16.58;67.97
7802;BME280;3945;48.952;9.506;2023-04-22T07:47:07;97318.66;;;16.79;66.90
7802;BME280;3945;48.952;9.506;2023-04-22T07:49:34;97312.25;;;17.07;66.71
7802;BME280;3945;48.952;9.506;2023-04-22T07:52:00;97313.16;;;17.44;65.43
7802;BME280;3945;48.952;9.506;2023-04-22T07:54:27;97313.22;;;17.80;63.75
7802;BME280;3945;48.952;9.506;2023-04-22T07:56:54;97314.28;;;18.06;63.56
7802;BME280;3945;48.952;9.506;2023-04-22T07:59:21;97304.22;;;18.34;63.54
7802;BME280;3945;48.952;9.506;2023-04-22T08:01:47;97305.31;;;18.55;62.23
7802;BME280;3945;48.952;9.506;2023-04-22T08:04:14;97291.47;;;18.70;59.26
7802;BME280;3945;48.952;9.506;2023-04-22T08:06:40;97301.81;;;18.77;58.13
7802;BME280;3945;48.952;9.506;2023-04-22T08:09:06;97293.94;;;18.89;59.61
7802;BME280;3945;48.952;9.506;2023-04-22T08:11:34;97294.78;;;18.98;60.63
7802;BME280;3945;48.952;9.506;2023-04-22T08:14:01;97287.06;;;19.05;58.11
7802;BME280;3945;48.952;9.506;2023-04-22T08:16:28;97293.75;;;19.17;61.16
7802;BME280;3945;48.952;9.506;2023-04-22T08:18:54;97280.63;;;19.32;60.61
7802;BME280;3945;48.952;9.506;2023-04-22T08:21:21;97295.91;;;19.45;59.40
7802;BME280;3945;48.952;9.506;2023-04-22T08:23:48;97294.06;;;19.55;57.49
7802;BME280;3945;48.952;9.506;2023-04-22T08:26:14;97299.97;;;19.65;56.60
7802;BME280;3945;48.952;9.506;2023-04-22T08:28:41;97297.28;;;19.74;57.00
7802;BME280;3945;48.952;9.506;2023-04-22T08:31:08;97306.69;;;19.85;56.50
7802;BME280;3945;48.952;9.506;2023-04-22T08:33:36;97306.19;;;19.83;56.68
7802;BME280;3945;48.952;9.506;2023-04-22T08:36:03;97305.56;;;19.86;55.99
7802;BME280;3945;48.952;9.506;2023-04-22T08:38:29;97308.44;;;19.98;56.25
7802;BME280;3945;48.952;9.506;2023-04-22T08:40:56;97303.53;;;20.09;56.51
7802;BME280;3945;48.952;9.506;2023-04-22T08:43:23;97309.09;;;20.21;55.45
7802;BME280;3945;48.952;9.506;2023-04-22T08:45:50;97311.78;;;20.30;53.46
7802;BME280;3945;48.952;9.506;2023-04-22T08:48:18;97313.06;;;20.32;56.39
7802;BME280;3945;48.952;9.506;2023-04-22T08:50:46;97311.00;;;20.29;54.79
7802;BME280;3945;48.952;9.506;2023-04-22T08:53:12;97315.47;;;20.16;53.05
7802;BME280;3945;48.952;9.506;2023-04-22T08:55:39;97317.50;;;20.02;55.04
7802;BME280;3945;48.952;9.506;2023-04-22T08:58:09;97317.03;;;20.00;55.50
7802;BME280;3945;48.952;9.506;2023-04-22T09:00:37;97317.81;;;20.01;53.94
7802;BME280;3945;48.952;9.506;2023-04-22T09:03:04;97309.41;;;20.02;51.44
7802;BME280;3945;48.952;9.506;2023-04-22T09:05:32;97318.16;;;20.08;55.30
7802;BME280;3945;48.952;9.506;2023-04-22T09:07:59;97315.91;;;20.18;53.96
7802;BME280;3945;48.952;9.506;2023-04-22T09:10:26;97327.69;;;20.40;55.99
7802;BME280;3945;48.952;9.506;2023-04-22T09:12:52;97298.88;;;20.70;52.90
7802;BME280;3945;48.952;9.506;2023-04-22T09:15:19;97314.38;;;21.16;50.29
7802;BME280;3945;48.952;9.506;2023-04-22T09:17:45;97299.38;;;21.56;49.47
7802;BME280;3945;48.952;9.506;2023-04-22T09:20:12;97301.28;;;21.85;46.66
7802;BME280;3945;48.952;9.506;2023-04-22T09:22:41;97296.44;;;21.99;47.38
7802;BME280;3945;48.952;9.506;2023-04-22T09:25:14;97300.72;;;22.00;45.26
7802;BME280;3945;48.952;9.506;2023-04-22T09:27:41;97301.19;;;22.02;47.77
7802;BME280;3945;48.952;9.506;2023-04-22T09:30:07;97303.44;;;22.00;43.33
7802;BME280;3945;48.952;9.506;2023-04-22T09:32:34;97297.72;;;21.93;45.43
7802;BME280;3945;48.952;9.506;2023-04-22T09:35:00;97296.75;;;21.98;43.46
7802;BME280;3945;48.952;9.506;2023-04-22T09:37:27;97293.88;;;22.03;42.87
7802;BME280;3945;48.952;9.506;2023-04-22T09:39:56;97288.44;;;22.03;43.21
7802;BME280;3945;48.952;9.506;2023-04-22T09:42:22;97294.72;;;22.15;43.74
7802;BME280;3945;48.952;9.506;2023-04-22T09:44:49;97295.16;;;22.38;43.70
7802;BME280;3945;48.952;9.506;2023-04-22T09:47:17;97303.94;;;22.56;45.21
7802;BME280;3945;48.952;9.506;2023-04-22T09:49:44;97293.13;;;22.68;43.43
7802;BME280;3945;48.952;9.506;2023-04-22T09:52:13;97290.81;;;22.79;44.25
7802;BME280;3945;48.952;9.506;2023-04-22T09:54:47;97286.75;;;22.85;42.03
7802;BME280;3945;48.952;9.506;2023-04-22T09:57:16;97280.09;;;22.82;42.22
7802;BME280;3945;48.952;9.506;2023-04-22T09:59:42;97283.47;;;22.79;42.04
7802;BME280;3945;48.952;9.506;2023-04-22T10:02:08;97281.44;;;22.88;44.29
7802;BME280;3945;48.952;9.506;2023-04-22T10:04:35;97281.03;;;23.11;41.46
7802;BME280;3945;48.952;9.506;2023-04-22T10:07:01;97272.00;;;23.31;42.51
7802;BME280;3945;48.952;9.506;2023-04-22T10:09:28;97271.78;;;23.60;43.07
7802;BME280;3945;48.952;9.506;2023-04-22T10:11:54;97269.00;;;23.85;42.46
7802;BME280;3945;48.952;9.506;2023-04-22T10:14:23;97262.94;;;24.16;39.13
7802;BME280;3945;48.952;9.506;2023-04-22T10:16:51;97269.47;;;24.39;41.21
7802;BME280;3945;48.952;9.506;2023-04-22T10:19:19;97268.56;;;24.63;40.17
7802;BME280;3945;48.952;9.506;2023-04-22T10:21:46;97262.50;;;24.69;39.61
7802;BME280;3945;48.952;9.506;2023-04-22T10:24:13;97263.31;;;24.85;38.08
7802;BME280;3945;48.952;9.506;2023-04-22T10:26:41;97262.66;;;25.04;37.21
7802;BME280;3945;48.952;9.506;2023-04-22T10:29:07;97261.72;;;25.12;38.02
7802;BME280;3945;48.952;9.506;2023-04-22T10:31:37;97260.00;;;25.08;35.96
7802;BME280;3945;48.952;9.506;2023-04-22T10:34:08;97261.31;;;24.82;34.87
7802;BME280;3945;48.952;9.506;2023-04-22T10:36:34;97251.47;;;24.78;35.33
7802;BME280;3945;48.952;9.506;2023-04-22T10:39:17;97257.97;;;24.89;35.17
7802;BME280;3945;48.952;9.506;2023-04-22T10:41:49;97252.03;;;24.99;39.96
7802;BME280;3945;48.952;9.506;2023-04-22T10:44:16;97247.63;;;25.26;39.81
7802;BME280;3945;48.952;9.506;2023-04-22T10:46:56;97243.91;;;25.50;40.80
7802;BME280;3945;48.952;9.506;2023-04-22T10:49:23;97238.09;;;25.67;39.74
7802;BME280;3945;48.952;9.506;2023-04-22T10:51:50;97237.91;;;25.76;35.72
7802;BME280;3945;48.952;9.506;2023-04-22T10:57:02;97232.06;;;25.93;35.35
7802;BME280;3945;48.952;9.506;2023-04-22T10:59:29;97227.72;;;26.11;38.16
7802;BME280;3945;48.952;9.506;2023-04-22T11:02:00;97234.72;;;26.28;34.56
7802;BME280;3945;48.952;9.506;2023-04-22T11:04:27;97226.59;;;26.51;38.62
7802;BME280;3945;48.952;9.506;2023-04-22T11:09:37;97221.56;;;26.75;35.53
7802;BME280;3945;48.952;9.506;2023-04-22T11:14:49;97208.53;;;26.88;38.63
7802;BME280;3945;48.952;9.506;2023-04-22T11:17:17;97211.91;;;27.01;37.95
7802;BME280;3945;48.952;9.506;2023-04-22T11:19:45;97217.59;;;27.15;36.57
7802;BME280;3945;48.952;9.506;2023-04-22T11:22:11;97213.97;;;27.34;36.80
7802;BME280;3945;48.952;9.506;2023-04-22T11:24:38;97211.09;;;27.23;35.11
7802;BME280;3945;48.952;9.506;2023-04-22T11:27:04;97209.53;;;26.99;36.22
7802;BME280;3945;48.952;9.506;2023-04-22T11:29:31;97213.03;;;26.77;32.84
7802;BME280;3945;48.952;9.506;2023-04-22T11:31:57;97208.84;;;26.83;34.35
7802;BME280;3945;48.952;9.506;2023-04-22T11:34:25;97206.38;;;26.97;34.27
7802;BME280;3945;48.952;9.506;2023-04-22T11:36:51;97204.06;;;26.99;34.65
7802;BME280;3945;48.952;9.506;2023-04-22T11:39:17;97207.16;;;26.98;35.63
7802;BME280;3945;48.952;9.506;2023-04-22T11:41:44;97208.44;;;27.04;34.40
7802;BME280;3945;48.952;9.506;2023-04-22T11:44:12;97208.97;;;27.13;31.15
7802;BME280;3945;48.952;9.506;2023-04-22T11:46:38;97203.75;;;27.31;32.95
7802;BME280;3945;48.952;9.506;2023-04-22T11:49:11;97197.44;;;27.23;30.63
7802;BME280;3945;48.952;9.506;2023-04-22T11:51:51;97194.75;;;27.04;31.62
7802;BME280;3945;48.952;9.506;2023-04-22T11:54:26;97193.91;;;27.23;35.61
7802;BME280;3945;48.952;9.506;2023-04-22T11:56:53;97197.03;;;27.25;34.19
7802;BME280;3945;48.952;9.506;2023-04-22T11:59:22;97188.63;;;27.10;32.15
7802;BME280;3945;48.952;9.506;2023-04-22T12:01:50;97198.75;;;26.87;31.19
7802;BME280;3945;48.952;9.506;2023-04-22T12:04:19;97195.09;;;26.99;33.56
7802;BME280;3945;48.952;9.506;2023-04-22T12:06:46;97188.56;;;26.84;33.02
7802;BME280;3945;48.952;9.506;2023-04-22T12:09:13;97190.44;;;26.80;34.64
7802;BME280;3945;48.952;9.506;2023-04-22T12:11:40;97196.44;;;26.66;34.17
7802;BME280;3945;48.952;9.506;2023-04-22T12:14:06;97192.00;;;26.81;37.03
7802;BME280;3945;48.952;9.506;2023-04-22T12:16:38;97183.00;;;27.00;34.07
7802;BME280;3945;48.952;9.506;2023-04-22T12:19:04;97181.66;;;27.13;35.56
7802;BME280;3945;48.952;9.506;2023-04-22T12:21:31;97177.97;;;27.28;33.71
7802;BME280;3945;48.952;9.506;2023-04-22T12:23:58;97178.19;;;27.42;32.99
7802;BME280;3945;48.952;9.506;2023-04-22T12:26:29;97173.06;;;27.41;32.77
7802;BME280;3945;48.952;9.506;2023-04-22T12:28:56;97179.50;;;27.26;32.55
7802;BME280;3945;48.952;9.506;2023-04-22T12:31:23;97170.94;;;27.27;34.10
7802;BME280;3945;48.952;9.506;2023-04-22T12:33:49;97167.28;;;27.46;32.08
7802;BME280;3945;48.952;9.506;2023-04-22T12:36:16;97173.81;;;27.38;33.54
7802;BME280;3945;48.952;9.506;2023-04-22T12:38:42;97173.19;;;27.22;32.71
7802;BME280;3945;48.952;9.506;2023-04-22T12:41:08;97176.06;;;27.06;32.41
7802;BME280;3945;48.952;9.506;2023-04-22T12:43:36;97170.44;;;26.72;32.67
7802;BME280;3945;48.952;9.506;2023-04-22T12:46:03;97174.75;;;26.51;31.96
7802;BME280;3945;48.952;9.506;2023-04-22T12:48:30;97169.50;;;26.23;33.08
7802;BME280;3945;48.952;9.506;2023-04-22T12:50:56;97178.22;;;25.71;33.20
7802;BME280;3945;48.952;9.506;2023-04-22T12:53:23;97183.22;;;25.34;33.48
7802;BME280;3945;48.952;9.506;2023-04-22T12:55:49;97178.53;;;24.99;32.58
7802;BME280;3945;48.952;9.506;2023-04-22T12:58:16;97176.91;;;24.82;33.02
7802;BME280;3945;48.952;9.506;2023-04-22T13:00:44;97182.47;;;24.70;34.13
7802;BME280;3945;48.952;9.506;2023-04-22T13:03:10;97182.47;;;24.70;34.92
7802;BME280;3945;48.952;9.506;2023-04-22T13:05:36;97177.81;;;24.71;35.17
7802;BME280;3945;48.952;9.506;2023-04-22T13:08:03;97176.03;;;24.63;35.06
7802;BME280;3945;48.952;9.506;2023-04-22T13:10:30;97176.66;;;24.56;35.98
7802;BME280;3945;48.952;9.506;2023-04-22T13:12:56;97175.56;;;24.45;37.10
7802;BME280;3945;48.952;9.506;2023-04-22T13:15:23;97177.03;;;24.27;37.37
7802;BME280;3945;48.952;9.506;2023-04-22T13:17:52;97185.00;;;24.20;34.78
7802;BME280;3945;48.952;9.506;2023-04-22T13:20:18;97177.50;;;24.17;36.70
7802;BME280;3945;48.952;9.506;2023-04-22T13:22:44;97175.72;;;24.08;37.02
7802;BME280;3945;48.952;9.506;2023-04-22T13:25:11;97176.25;;;23.98;36.96
7802;BME280;3945;48.952;9.506;2023-04-22T13:27:37;97167.25;;;23.82;35.86